Halle Kroellwitz, Germany

8:13 AM CET on January 27, 2015 (GMT +0100)
ISACHSEN100 | Change Station
CLOSE
Current Station
Personal Weather Station
Location: Halle, SACHSEN-ANHALT
Elevation: 305 ft
Nearby Weather Stations

Elev 305 ft 51.51 °N, 11.89 °E | Updated 1 minute ago

Light Rain
Light Rain
38.4 °F
Feels Like 38 °F
N
2.0
Wind Variable Wind from SW

Today
High -- | Low -- °F
--% Chance of Precip.
Yesterday
High -- | Low -- °F
Precip. -- in
7:58 AM 4:52 PM
Waxing Crescent, 51% visible
Pressure 29.95 in
Visibility 6.2 miles
Clouds Scattered Clouds 1500 ft
Mostly Cloudy 3500 ft
Windchill 38 °F
Dew Point 36 °F
Humidity 89%
Rainfall 0.00 in
Snow Depth Not available.
UV 0 out of 12
Pollen Not available.
Air Quality Not available.
Flu Activity Not available.
METAR EDDP 270650Z 28016KT 9999 -RA SCT015 BKN035 03/01 Q1014 TEMPO 28015G25KT BKN014

More Conditions Fewer Conditions

Pressure 29.95 in
Visibility 6.2 miles
Clouds Scattered Clouds 1500 ft
Mostly Cloudy 3500 ft
Windchill 38 °F
Dew Point 36 °F
Humidity 89%
Rainfall 0.00 in
Snow Depth Not available.
UV 0 out of 12
Pollen Not available.
Air Quality Not available.
Flu Activity Not available.
METAR EDDP 270650Z 28016KT 9999 -RA SCT015 BKN035 03/01 Q1014 TEMPO 28015G25KT BKN014

More Conditions Fewer Conditions

10-Day Weather Forecast

Almanac

Astronomy

Jan. 27, 2015 Rise Set
Actual Time
Civil Twilight
Nautical Twilight
Astronomical Twilight
Moon
Length of Visible Light
Length of Day
Tomorrow will be .
, % of the Moon is Illuminated

Today's Extremes

Country Highs Country Lows

Community

WunderPhotos

Upload Photos

1,790,544 photos uploaded!

WunderBlogs® & News

Nearby

Air Quality

  Air Quality AQ Index Pollutant
Not available.

Snow Depth

Station Depth Elevation

Earthquake Activity

City Distance Mag. Time & Date
Minimum magnitude displayed is 2.5.

Coastal Water Temperatures

Place Temperature

Nearby Weather Stations